createdAt,value
2017-09-21T00:00:47.780Z,13.96
2017-09-21T00:01:47.750Z,14.00
2017-09-21T00:02:47.710Z,14.05
2017-09-21T00:03:47.695Z,14.08
2017-09-21T00:04:47.652Z,14.05
2017-09-21T00:05:47.606Z,14.05
2017-09-21T00:06:47.576Z,14.10
2017-09-21T00:07:47.548Z,14.08
2017-09-21T00:08:47.499Z,14.04
2017-09-21T00:09:47.467Z,14.07
2017-09-21T00:10:47.437Z,14.10
2017-09-21T00:11:47.413Z,14.11
2017-09-21T00:12:47.364Z,14.12
2017-09-21T00:13:47.326Z,14.11
2017-09-21T00:14:47.307Z,14.10
2017-09-21T00:15:47.262Z,14.07
2017-09-21T00:16:47.234Z,14.10
2017-09-21T00:17:47.189Z,14.11
2017-09-21T00:18:47.172Z,14.10
2017-09-21T00:19:47.122Z,14.11
2017-09-21T00:20:47.086Z,13.95
2017-09-21T00:21:47.062Z,14.03
2017-09-21T00:22:47.016Z,13.99
2017-09-21T00:23:46.988Z,13.95
2017-09-21T00:24:46.947Z,13.86
2017-09-21T00:25:46.983Z,13.90
2017-09-21T00:26:46.953Z,13.93
2017-09-21T00:27:46.911Z,13.97
2017-09-21T00:28:46.812Z,13.89
2017-09-21T00:29:46.809Z,14.00
2017-09-21T00:30:46.742Z,14.03
2017-09-21T00:31:46.713Z,14.04
2017-09-21T00:32:46.668Z,14.00
2017-09-21T00:33:46.637Z,14.04
2017-09-21T00:34:48.187Z,13.95
2017-09-21T00:35:46.564Z,13.95
2017-09-21T00:36:46.544Z,13.93
2017-09-21T00:37:46.493Z,13.93
2017-09-21T00:38:46.464Z,13.90
2017-09-21T00:39:46.441Z,13.87
2017-09-21T00:40:46.397Z,13.92
2017-09-21T00:41:46.359Z,13.89
2017-09-21T00:42:46.325Z,13.97
2017-09-21T00:43:46.285Z,13.87
2017-09-21T00:44:46.252Z,13.93
2017-09-21T00:45:46.217Z,13.92
2017-09-21T00:46:46.180Z,13.92
2017-09-21T00:47:46.150Z,13.93
2017-09-21T00:48:46.111Z,13.87
2017-09-21T00:49:46.077Z,13.87
2017-09-21T00:50:46.042Z,13.95
2017-09-21T00:51:46.006Z,13.90
2017-09-21T00:52:45.979Z,13.86
2017-09-21T00:53:45.943Z,13.89
2017-09-21T00:54:45.900Z,13.89
2017-09-21T00:55:45.868Z,13.92
2017-09-21T00:56:45.833Z,13.95
2017-09-21T00:57:45.798Z,13.85
2017-09-21T00:58:45.770Z,13.89
2017-09-21T00:59:45.727Z,13.85
2017-09-21T01:00:45.707Z,13.89
2017-09-21T01:01:45.662Z,13.90
2017-09-21T01:02:45.625Z,13.89
2017-09-21T01:03:45.596Z,13.93
2017-09-21T01:04:45.565Z,13.96
2017-09-21T01:05:45.528Z,13.90
2017-09-21T01:06:45.482Z,13.92
2017-09-21T01:07:45.448Z,13.93
2017-09-21T01:08:45.423Z,13.92
2017-09-21T01:09:45.380Z,13.92
2017-09-21T01:10:45.350Z,14.00
2017-09-21T01:11:45.311Z,13.97
2017-09-21T01:12:45.280Z,13.92
2017-09-21T01:13:45.245Z,13.96
2017-09-21T01:14:45.205Z,13.93
2017-09-21T01:15:45.185Z,13.92
2017-09-21T01:16:45.145Z,13.95
2017-09-21T01:17:45.112Z,13.97
2017-09-21T01:18:45.077Z,13.93
2017-09-21T01:19:45.031Z,13.96
2017-09-21T01:20:45.008Z,14.07
2017-09-21T01:21:44.967Z,14.04
2017-09-21T01:22:44.928Z,13.95
2017-09-21T01:23:44.892Z,13.93
2017-09-21T01:24:44.859Z,13.96
2017-09-21T01:25:44.860Z,13.96
2017-09-21T01:26:44.788Z,13.99
2017-09-21T01:27:44.757Z,14.00
2017-09-21T01:28:44.735Z,13.92
2017-09-21T01:29:44.692Z,13.90
2017-09-21T01:30:44.650Z,14.04
2017-09-21T01:31:44.625Z,13.96
2017-09-21T01:32:44.585Z,13.93
2017-09-21T01:33:44.546Z,13.95
2017-09-21T01:34:44.510Z,13.93
2017-09-21T01:35:44.482Z,13.97
2017-09-21T01:36:44.441Z,13.97
2017-09-21T01:37:44.407Z,13.97
2017-09-21T01:38:44.382Z,13.97
2017-09-21T01:39:44.338Z,13.97
2017-09-21T01:40:44.311Z,13.95
2017-09-21T01:41:44.268Z,13.93
2017-09-21T01:42:44.239Z,13.95
2017-09-21T01:43:44.199Z,13.93
2017-09-21T01:44:44.164Z,13.92
2017-09-21T01:45:44.134Z,13.96
2017-09-21T01:46:44.117Z,13.95
2017-09-21T01:47:44.060Z,13.90
2017-09-21T01:48:44.029Z,13.95
2017-09-21T01:49:43.991Z,13.95
2017-09-21T01:50:43.963Z,13.93
2017-09-21T01:51:43.922Z,13.95
2017-09-21T01:52:43.891Z,13.95
2017-09-21T01:53:43.855Z,13.95
2017-09-21T01:54:43.829Z,13.89
2017-09-21T01:55:43.783Z,13.96
2017-09-21T01:56:43.765Z,13.92
2017-09-21T01:57:43.777Z,13.87
2017-09-21T01:58:43.678Z,13.78
2017-09-21T01:59:43.644Z,13.83
2017-09-21T02:00:43.638Z,13.89
2017-09-21T02:01:43.581Z,13.93
2017-09-21T02:02:43.539Z,13.81
2017-09-21T02:03:43.515Z,13.87
2017-09-21T02:04:43.469Z,13.81
2017-09-21T02:05:43.452Z,13.81
2017-09-21T02:06:43.401Z,13.89
2017-09-21T02:07:43.385Z,13.79
2017-09-21T02:08:43.357Z,13.83
2017-09-21T02:09:43.310Z,13.85
2017-09-21T02:10:43.259Z,13.75
2017-09-21T02:11:43.230Z,13.75
2017-09-21T02:12:43.192Z,13.75
2017-09-21T02:13:43.160Z,13.75
2017-09-21T02:14:43.123Z,13.87
2017-09-21T02:15:43.091Z,13.79
2017-09-21T02:16:43.089Z,13.85
2017-09-21T02:17:43.022Z,13.89
2017-09-21T02:18:42.985Z,13.74
2017-09-21T02:19:42.972Z,13.79
2017-09-21T02:20:42.920Z,13.78
2017-09-21T02:21:42.876Z,13.79
2017-09-21T02:22:42.851Z,13.79
2017-09-21T02:23:42.810Z,13.83
2017-09-21T02:24:42.773Z,13.75
2017-09-21T02:25:42.736Z,13.72
2017-09-21T02:26:42.709Z,13.81
2017-09-21T02:27:42.667Z,13.79
2017-09-21T02:28:42.635Z,13.75
2017-09-21T02:29:42.602Z,13.75
2017-09-21T02:30:42.565Z,13.81
2017-09-21T02:31:42.558Z,13.85
2017-09-21T02:32:42.495Z,13.78
2017-09-21T02:33:44.217Z,13.81
2017-09-21T02:34:42.427Z,13.65
2017-09-21T02:35:42.391Z,13.62
2017-09-21T02:36:42.358Z,13.65
2017-09-21T02:37:42.350Z,13.65
2017-09-21T02:38:42.284Z,13.56
2017-09-21T02:39:42.254Z,13.70
2017-09-21T02:40:42.215Z,13.62
2017-09-21T02:41:42.183Z,13.67
2017-09-21T02:42:42.173Z,13.68
2017-09-21T02:43:42.141Z,13.70
2017-09-21T02:44:42.079Z,13.72
2017-09-21T02:45:42.046Z,13.68
2017-09-21T02:46:42.042Z,13.65
2017-09-21T02:47:42.003Z,13.63
2017-09-21T02:48:41.954Z,13.71
2017-09-21T02:49:41.911Z,13.70
2017-09-21T02:50:41.865Z,13.68
2017-09-21T02:51:42.326Z,13.65
2017-09-21T02:52:41.801Z,13.68
2017-09-21T02:53:41.763Z,13.74
2017-09-21T02:54:41.729Z,13.75
2017-09-21T02:55:41.695Z,13.72
2017-09-21T02:56:41.658Z,13.68
2017-09-21T02:57:41.619Z,13.65
2017-09-21T02:58:41.586Z,13.67
2017-09-21T02:59:41.552Z,13.74
2017-09-21T03:00:41.523Z,13.71
2017-09-21T03:01:41.484Z,13.71
2017-09-21T03:02:41.452Z,13.68
2017-09-21T03:03:41.420Z,13.65
2017-09-21T03:04:41.383Z,13.77
2017-09-21T03:05:41.346Z,13.65
2017-09-21T03:06:41.312Z,13.67
2017-09-21T03:07:41.282Z,13.65
2017-09-21T03:08:41.240Z,13.62
2017-09-21T03:09:41.205Z,13.59
2017-09-21T03:10:41.185Z,13.60
2017-09-21T03:11:41.143Z,13.63
2017-09-21T03:12:41.095Z,13.60
2017-09-21T03:13:41.099Z,13.67
2017-09-21T03:14:41.068Z,13.65
2017-09-21T03:15:40.992Z,13.54
2017-09-21T03:16:40.960Z,13.54
2017-09-21T03:17:40.925Z,13.52
2017-09-21T03:18:40.895Z,13.47
2017-09-21T03:19:40.857Z,13.46
2017-09-21T03:20:40.818Z,13.53
2017-09-21T03:21:40.784Z,13.42
2017-09-21T03:22:40.757Z,13.42
2017-09-21T03:23:40.712Z,13.49
2017-09-21T03:24:40.678Z,13.46
2017-09-21T03:25:40.644Z,13.52
2017-09-21T03:26:40.617Z,13.42
2017-09-21T03:27:40.577Z,13.46
2017-09-21T03:28:40.538Z,13.46
2017-09-21T03:29:40.505Z,13.38
2017-09-21T03:30:40.468Z,13.46
2017-09-21T03:31:40.447Z,13.35
2017-09-21T03:32:40.397Z,13.46
2017-09-21T03:33:40.362Z,13.35
2017-09-21T03:34:40.329Z,13.44
2017-09-21T03:35:40.291Z,13.42
2017-09-21T03:36:40.258Z,13.35
2017-09-21T03:37:40.231Z,13.46
2017-09-21T03:38:40.188Z,13.38
2017-09-21T03:39:40.151Z,13.47
2017-09-21T03:40:40.116Z,13.37
2017-09-21T03:41:40.090Z,13.38
2017-09-21T03:42:40.047Z,13.42
2017-09-21T03:43:40.013Z,13.33
2017-09-21T03:44:39.977Z,13.37
2017-09-21T03:45:40.035Z,13.39
2017-09-21T03:46:39.904Z,13.39
2017-09-21T03:47:39.870Z,13.42
2017-09-21T03:48:39.833Z,13.28
2017-09-21T03:49:39.800Z,13.31
2017-09-21T03:50:39.764Z,13.42
2017-09-21T03:51:39.742Z,13.35
2017-09-21T03:52:39.691Z,13.33
2017-09-21T03:53:39.658Z,13.39
2017-09-21T03:54:39.629Z,13.23
2017-09-21T03:55:39.589Z,13.31
2017-09-21T03:56:39.555Z,13.30
2017-09-21T03:57:39.524Z,13.38
2017-09-21T03:58:39.479Z,13.30
2017-09-21T03:59:39.445Z,13.30
2017-09-21T04:00:39.412Z,13.35
2017-09-21T04:01:39.376Z,13.30
2017-09-21T04:02:39.339Z,13.33
2017-09-21T04:03:39.307Z,13.25
2017-09-21T04:04:39.268Z,13.31
2017-09-21T04:05:39.234Z,13.30
2017-09-21T04:06:39.198Z,13.33
2017-09-21T04:07:39.171Z,13.25
2017-09-21T04:08:39.128Z,13.25
2017-09-21T04:09:39.095Z,13.30
2017-09-21T04:10:39.057Z,13.25
2017-09-21T04:11:39.030Z,13.30
2017-09-21T04:12:38.988Z,13.25
2017-09-21T04:13:38.950Z,13.30
2017-09-21T04:14:38.931Z,13.39
2017-09-21T04:15:38.880Z,13.27
2017-09-21T04:16:38.845Z,13.33
2017-09-21T04:17:38.809Z,13.37
2017-09-21T04:18:38.776Z,13.28
2017-09-21T04:19:38.739Z,13.33
2017-09-21T04:20:38.712Z,13.31
2017-09-21T04:21:38.669Z,13.39
2017-09-21T04:22:38.631Z,13.31
2017-09-21T04:23:38.599Z,13.44
2017-09-21T04:24:38.563Z,13.30
2017-09-21T04:25:38.525Z,13.41
2017-09-21T04:26:38.493Z,13.42
2017-09-21T04:27:38.456Z,13.27
2017-09-21T04:28:38.423Z,13.38
2017-09-21T04:29:38.384Z,13.41
2017-09-21T04:30:38.350Z,13.37
2017-09-21T04:31:38.319Z,13.33
2017-09-21T04:32:38.288Z,13.38
2017-09-21T04:33:38.242Z,13.41
2017-09-21T04:34:38.209Z,13.30
2017-09-21T04:35:38.175Z,13.38
2017-09-21T04:36:38.137Z,13.38
2017-09-21T04:37:38.106Z,13.38
2017-09-21T04:38:38.747Z,13.38
2017-09-21T04:39:38.034Z,13.39
2017-09-21T04:40:38.010Z,13.31
2017-09-21T04:41:37.962Z,13.33
2017-09-21T04:42:37.924Z,13.44
2017-09-21T04:43:37.893Z,13.42
2017-09-21T04:44:37.853Z,13.44
2017-09-21T04:45:37.821Z,13.38
2017-09-21T04:46:37.788Z,13.46
2017-09-21T04:47:37.750Z,13.44
2017-09-21T04:48:37.718Z,13.35
2017-09-21T04:49:37.681Z,13.38
2017-09-21T04:50:37.645Z,13.37
2017-09-21T04:51:37.609Z,13.41
2017-09-21T04:52:37.581Z,13.39
2017-09-21T04:53:37.542Z,13.37
2017-09-21T04:54:37.505Z,13.37
2017-09-21T04:55:37.476Z,13.35
2017-09-21T04:56:37.433Z,13.35
2017-09-21T04:57:37.398Z,13.35
2017-09-21T04:58:37.362Z,13.42
2017-09-21T04:59:37.326Z,13.38
2017-09-21T05:00:37.301Z,13.42
2017-09-21T05:01:37.256Z,13.35
2017-09-21T05:02:37.231Z,13.38
2017-09-21T05:03:37.188Z,13.37
2017-09-21T05:04:37.153Z,13.41
2017-09-21T05:05:37.131Z,13.42
2017-09-21T05:06:37.081Z,13.44
2017-09-21T05:07:37.045Z,13.52
2017-09-21T05:08:37.013Z,13.52
2017-09-21T05:09:36.976Z,13.52
2017-09-21T05:10:36.945Z,13.39
2017-09-21T05:11:36.904Z,13.46
2017-09-21T05:12:36.870Z,13.52
2017-09-21T05:13:36.835Z,13.57
2017-09-21T05:14:36.797Z,13.74
2017-09-21T05:15:36.761Z,13.78
2017-09-21T05:16:36.731Z,13.67
2017-09-21T05:17:36.693Z,13.46
2017-09-21T05:18:36.665Z,13.30
2017-09-21T05:19:36.622Z,13.47
2017-09-21T05:20:36.592Z,13.42
2017-09-21T05:21:36.551Z,13.28
2017-09-21T05:22:36.515Z,13.30
2017-09-21T05:23:36.481Z,13.30
2017-09-21T05:24:36.447Z,13.30
2017-09-21T05:25:36.410Z,13.23
2017-09-21T05:26:36.377Z,13.28
2017-09-21T05:27:36.341Z,13.20
2017-09-21T05:28:36.307Z,13.28
2017-09-21T05:29:36.274Z,13.37
2017-09-21T05:30:36.234Z,13.30
2017-09-21T05:31:36.200Z,13.35
2017-09-21T05:32:36.162Z,13.39
2017-09-21T05:33:36.129Z,13.39
2017-09-21T05:34:36.104Z,13.42
2017-09-21T05:35:36.059Z,13.42
2017-09-21T05:36:36.031Z,13.39
2017-09-21T05:37:35.995Z,13.42
2017-09-21T05:38:35.959Z,13.57
2017-09-21T05:39:35.917Z,13.57
2017-09-21T05:40:35.882Z,13.63
2017-09-21T05:41:35.864Z,13.65
2017-09-21T05:42:35.816Z,13.62
2017-09-21T05:43:35.780Z,13.53
2017-09-21T05:44:35.741Z,13.63
2017-09-21T05:45:35.710Z,13.54
2017-09-21T05:46:35.677Z,13.71
2017-09-21T05:47:35.636Z,13.65
2017-09-21T05:48:35.603Z,13.81
2017-09-21T05:49:35.566Z,13.93
2017-09-21T05:50:35.536Z,14.08
2017-09-21T05:51:35.534Z,13.97
2017-09-21T05:52:35.459Z,14.10
2017-09-21T05:53:35.429Z,14.25
2017-09-21T05:54:35.391Z,14.36
2017-09-21T05:55:35.356Z,14.47
2017-09-21T05:56:35.322Z,14.45
2017-09-21T05:57:35.286Z,15.04
2017-09-21T05:58:35.247Z,15.33
2017-09-21T05:59:35.221Z,16.41
2017-09-21T06:00:35.189Z,16.94
2017-09-21T06:01:35.147Z,17.67
2017-09-21T06:02:35.111Z,18.07
2017-09-21T06:03:35.080Z,18.18
2017-09-21T06:04:35.042Z,18.34
2017-09-21T06:05:35.017Z,18.75
2017-09-21T06:06:34.973Z,19.16
2017-09-21T06:07:34.941Z,19.44
2017-09-21T06:08:34.939Z,19.30
2017-09-21T06:09:34.878Z,19.66
2017-09-21T06:10:34.837Z,19.95
2017-09-21T06:11:34.810Z,20.13
2017-09-21T06:12:34.776Z,19.29
2017-09-21T06:13:34.744Z,18.15
2017-09-21T06:14:34.709Z,16.93
2017-09-21T06:15:34.675Z,16.12
2017-09-21T06:16:34.643Z,15.90
2017-09-21T06:17:34.612Z,15.35
2017-09-21T06:18:34.582Z,14.89
2017-09-21T06:19:34.559Z,14.91
2017-09-21T06:20:34.515Z,14.84
2017-09-21T06:21:34.482Z,14.58
2017-09-21T06:22:34.448Z,14.50
2017-09-21T06:23:34.419Z,14.53
2017-09-21T06:24:34.384Z,14.48
2017-09-21T06:25:34.350Z,14.29
2017-09-21T06:26:34.317Z,14.33
2017-09-21T06:27:34.288Z,14.68
2017-09-21T06:28:34.257Z,14.85
2017-09-21T06:29:34.220Z,15.03
2017-09-21T06:30:34.184Z,14.70
2017-09-21T06:31:34.157Z,15.15
2017-09-21T06:32:34.124Z,15.76
2017-09-21T06:33:34.095Z,17.36
2017-09-21T06:34:34.058Z,18.22
2017-09-21T06:35:34.022Z,18.73
2017-09-21T06:36:33.986Z,19.47
2017-09-21T06:37:33.956Z,19.15
2017-09-21T06:38:33.929Z,18.60
2017-09-21T06:39:33.891Z,18.52
2017-09-21T06:40:33.862Z,18.68
2017-09-21T06:41:33.825Z,19.14
2017-09-21T06:42:33.791Z,19.95
2017-09-21T06:43:33.762Z,19.96
2017-09-21T06:44:33.734Z,19.99
2017-09-21T06:45:33.702Z,17.92
2017-09-21T06:46:33.689Z,16.71
2017-09-21T06:47:33.633Z,16.15
2017-09-21T06:48:33.601Z,15.95
2017-09-21T06:49:34.400Z,15.55
2017-09-21T06:50:33.538Z,15.42
2017-09-21T06:51:33.507Z,15.10
2017-09-21T06:52:33.475Z,15.14
2017-09-21T06:53:33.447Z,15.29
2017-09-21T06:54:33.415Z,15.51
2017-09-21T06:55:33.381Z,15.11
2017-09-21T06:56:33.351Z,14.86
2017-09-21T06:57:33.320Z,14.85
2017-09-21T06:58:33.292Z,14.81
2017-09-21T06:59:33.259Z,14.68
2017-09-21T07:00:33.228Z,14.78
2017-09-21T07:01:33.190Z,14.79
2017-09-21T07:02:33.165Z,15.03
2017-09-21T07:03:33.145Z,15.10
2017-09-21T07:04:33.096Z,15.21
2017-09-21T07:05:33.066Z,15.22
2017-09-21T07:06:33.043Z,15.28
2017-09-21T07:07:33.000Z,15.28
2017-09-21T07:08:32.971Z,15.57
2017-09-21T07:09:32.959Z,15.68
2017-09-21T07:10:32.921Z,15.91
2017-09-21T07:11:32.870Z,15.55
2017-09-21T07:12:32.840Z,15.37
2017-09-21T07:13:32.804Z,15.17
2017-09-21T07:14:32.799Z,15.49
2017-09-21T07:15:32.748Z,15.61
2017-09-21T07:16:32.716Z,15.46
2017-09-21T07:17:32.745Z,15.57
2017-09-21T07:18:32.659Z,15.43
2017-09-21T07:19:32.611Z,15.61
2017-09-21T07:20:32.661Z,15.37
2017-09-21T07:21:32.550Z,15.29
2017-09-21T07:22:32.547Z,15.11
2017-09-21T07:23:32.485Z,15.25
2017-09-21T07:24:32.448Z,15.47
2017-09-21T07:25:32.415Z,15.77
2017-09-21T07:26:32.385Z,15.97
2017-09-21T07:27:32.347Z,15.72
2017-09-21T07:28:32.321Z,15.61
2017-09-21T07:29:32.288Z,15.70
2017-09-21T07:30:32.249Z,15.43
2017-09-21T07:31:32.215Z,15.52
2017-09-21T07:32:32.187Z,15.42
2017-09-21T07:33:32.150Z,15.51
2017-09-21T07:34:32.122Z,15.73
2017-09-21T07:35:32.087Z,15.88
2017-09-21T07:36:32.055Z,15.95
2017-09-21T07:37:32.027Z,16.01
2017-09-21T07:38:31.986Z,15.97
2017-09-21T07:39:31.956Z,15.92
2017-09-21T07:40:31.923Z,16.05
2017-09-21T07:41:31.891Z,16.24
2017-09-21T07:42:31.867Z,16.33
2017-09-21T07:43:31.832Z,16.36
2017-09-21T07:44:31.793Z,16.39
2017-09-21T07:45:31.759Z,16.43
2017-09-21T07:46:31.738Z,16.41
2017-09-21T07:47:31.695Z,16.32
2017-09-21T07:48:31.663Z,16.23
2017-09-21T07:49:31.642Z,16.04
2017-09-21T07:50:31.607Z,15.65
2017-09-21T07:51:31.564Z,15.59
2017-09-21T07:52:31.530Z,15.21
2017-09-21T07:53:31.505Z,14.97
2017-09-21T07:54:31.466Z,15.03
2017-09-21T07:55:31.442Z,15.11
2017-09-21T07:56:31.400Z,15.29
2017-09-21T07:57:31.368Z,15.43
2017-09-21T07:58:31.339Z,15.51
2017-09-21T07:59:31.299Z,15.18
2017-09-21T08:00:31.269Z,15.18
2017-09-21T08:01:31.235Z,15.42
2017-09-21T08:02:31.201Z,15.54
2017-09-21T08:03:31.194Z,15.57
2017-09-21T08:04:31.155Z,15.59
2017-09-21T08:05:31.104Z,15.54
2017-09-21T08:06:31.067Z,15.57
2017-09-21T08:07:31.038Z,15.24
2017-09-21T08:08:31.011Z,15.40
2017-09-21T08:09:30.971Z,15.27
2017-09-21T08:10:30.934Z,15.35
2017-09-21T08:11:30.907Z,15.37
2017-09-21T08:12:30.868Z,15.57
2017-09-21T08:13:30.837Z,15.43
2017-09-21T08:14:30.811Z,15.49
2017-09-21T08:15:30.770Z,15.64
2017-09-21T08:16:30.740Z,15.55
2017-09-21T08:17:30.772Z,15.58
2017-09-21T08:18:30.782Z,15.67
2017-09-21T08:19:30.639Z,15.62
2017-09-21T08:20:30.605Z,15.58
2017-09-21T08:21:30.573Z,15.55
2017-09-21T08:22:30.586Z,15.55
2017-09-21T08:23:30.506Z,15.77
2017-09-21T08:24:30.478Z,15.77
2017-09-21T08:25:30.450Z,15.76
2017-09-21T08:26:30.405Z,15.77
2017-09-21T08:27:30.378Z,15.79
2017-09-21T08:28:30.340Z,15.58
2017-09-21T08:29:30.307Z,15.68
2017-09-21T08:30:30.272Z,15.73
2017-09-21T08:31:30.238Z,15.72
2017-09-21T08:32:30.211Z,15.91
2017-09-21T08:33:30.173Z,15.76
2017-09-21T08:34:30.149Z,15.82
2017-09-21T08:35:30.106Z,15.95
2017-09-21T08:36:30.081Z,15.86
2017-09-21T08:37:30.045Z,15.82
2017-09-21T08:38:30.003Z,15.77
2017-09-21T08:39:29.976Z,15.76
2017-09-21T08:40:29.942Z,15.73
2017-09-21T08:41:29.908Z,15.75
2017-09-21T08:42:29.882Z,15.77
2017-09-21T08:43:29.843Z,15.77
2017-09-21T08:44:29.814Z,15.83
2017-09-21T08:45:29.801Z,15.83
2017-09-21T08:46:29.747Z,15.91
2017-09-21T08:47:29.711Z,16.02
2017-09-21T08:48:29.674Z,16.04
2017-09-21T08:49:29.649Z,16.15
2017-09-21T08:50:29.621Z,16.23
2017-09-21T08:51:29.604Z,16.10
2017-09-21T08:52:29.553Z,16.08
2017-09-21T08:53:29.513Z,16.12
2017-09-21T08:54:29.478Z,16.38
2017-09-21T08:55:29.576Z,16.50
2017-09-21T08:56:29.414Z,16.64
2017-09-21T08:57:29.378Z,16.64
2017-09-21T08:58:29.362Z,16.68
2017-09-21T08:59:29.310Z,16.72
2017-09-21T09:00:29.292Z,16.66
2017-09-21T09:01:29.267Z,16.64
2017-09-21T09:02:29.211Z,16.61
2017-09-21T09:03:29.184Z,16.68
2017-09-21T09:04:29.146Z,16.69
2017-09-21T09:05:29.112Z,16.78
2017-09-21T09:06:29.127Z,16.71
2017-09-21T09:07:29.057Z,16.74
2017-09-21T09:08:29.140Z,16.84
2017-09-21T09:09:29.013Z,16.74
2017-09-21T09:10:28.955Z,16.61
2017-09-21T09:11:28.919Z,16.53
2017-09-21T09:12:28.886Z,16.26
2017-09-21T09:13:28.862Z,16.36
2017-09-21T09:14:28.817Z,16.35
2017-09-21T09:15:28.786Z,16.29
2017-09-21T09:16:28.760Z,16.32
2017-09-21T09:17:28.719Z,16.32
2017-09-21T09:18:28.687Z,16.46
2017-09-21T09:19:28.657Z,16.41
2017-09-21T09:20:28.623Z,16.35
2017-09-21T09:21:28.603Z,16.35
2017-09-21T09:22:28.569Z,16.29
2017-09-21T09:23:28.531Z,16.23
2017-09-21T09:24:28.490Z,16.41
2017-09-21T09:25:28.468Z,16.65
2017-09-21T09:26:28.431Z,16.76
2017-09-21T09:27:28.403Z,17.04
2017-09-21T09:28:28.363Z,16.93
2017-09-21T09:29:28.335Z,17.02
2017-09-21T09:30:28.295Z,17.06
2017-09-21T09:31:28.262Z,17.05
2017-09-21T09:32:28.229Z,17.04
2017-09-21T09:33:28.210Z,17.11
2017-09-21T09:34:28.194Z,17.05
2017-09-21T09:35:28.131Z,17.06
2017-09-21T09:36:28.096Z,17.08
2017-09-21T09:37:28.066Z,17.01
2017-09-21T09:38:28.034Z,16.94
2017-09-21T09:39:27.999Z,17.29
2017-09-21T09:40:27.967Z,17.46
2017-09-21T09:41:27.935Z,17.74
2017-09-21T09:42:27.904Z,17.63
2017-09-21T09:43:27.869Z,17.76
2017-09-21T09:44:27.841Z,17.67
2017-09-21T09:45:27.804Z,17.52
2017-09-21T09:46:27.785Z,17.60
2017-09-21T09:47:27.748Z,17.60
2017-09-21T09:48:27.709Z,17.46
2017-09-21T09:49:27.681Z,17.27
2017-09-21T09:50:27.646Z,17.14
2017-09-21T09:51:27.695Z,17.20
2017-09-21T09:52:27.578Z,17.27
2017-09-21T09:53:27.612Z,17.24
2017-09-21T09:54:27.558Z,17.15
2017-09-21T09:55:27.485Z,17.23
2017-09-21T09:56:27.459Z,17.31
2017-09-21T09:57:27.420Z,17.36
2017-09-21T09:58:27.402Z,17.54
2017-09-21T09:59:27.367Z,17.71
2017-09-21T10:00:27.324Z,17.49
2017-09-21T10:01:27.303Z,17.59
2017-09-21T10:02:27.262Z,17.60
2017-09-21T10:03:27.232Z,17.63
2017-09-21T10:04:27.194Z,17.83
2017-09-21T10:05:27.172Z,17.70
2017-09-21T10:06:27.136Z,17.56
2017-09-21T10:07:27.101Z,17.71
2017-09-21T10:08:27.071Z,17.72
2017-09-21T10:09:27.046Z,17.71
2017-09-21T10:10:27.120Z,17.63
2017-09-21T10:11:26.979Z,17.51
2017-09-21T10:12:26.944Z,17.64
2017-09-21T10:13:27.071Z,17.72
2017-09-21T10:14:26.928Z,17.68
2017-09-21T10:15:26.858Z,17.71
2017-09-21T10:16:26.872Z,17.74
2017-09-21T10:17:26.827Z,17.79
2017-09-21T10:18:26.794Z,17.94
2017-09-21T10:19:26.728Z,17.95
2017-09-21T10:20:26.736Z,18.08
2017-09-21T10:21:26.674Z,18.18
2017-09-21T10:22:26.646Z,18.33
2017-09-21T10:23:26.609Z,18.00
2017-09-21T10:24:26.596Z,17.95
2017-09-21T10:25:26.529Z,17.79
2017-09-21T10:26:26.548Z,17.79
2017-09-21T10:27:26.491Z,17.95
2017-09-21T10:28:26.449Z,17.97
2017-09-21T10:29:26.403Z,18.05
2017-09-21T10:30:26.450Z,18.20
2017-09-21T10:31:26.342Z,18.34
2017-09-21T10:32:26.390Z,18.34
2017-09-21T10:33:26.334Z,18.22
2017-09-21T10:34:26.252Z,18.22
2017-09-21T10:35:26.362Z,18.13
2017-09-21T10:36:26.182Z,18.49
2017-09-21T10:37:26.217Z,18.55
2017-09-21T10:38:26.121Z,18.41
2017-09-21T10:39:26.097Z,18.37
2017-09-21T10:40:26.191Z,18.33
2017-09-21T10:41:26.031Z,18.19
2017-09-21T10:42:25.991Z,18.08
2017-09-21T10:43:25.961Z,18.34
2017-09-21T10:44:25.928Z,18.49
2017-09-21T10:45:25.903Z,18.47
2017-09-21T10:46:25.867Z,18.28
2017-09-21T10:47:25.840Z,18.33
2017-09-21T10:48:25.806Z,18.43
2017-09-21T10:49:25.776Z,18.45
2017-09-21T10:50:25.753Z,18.80
2017-09-21T10:51:25.724Z,18.63
2017-09-21T10:52:25.681Z,18.77
2017-09-21T10:53:25.651Z,18.93
2017-09-21T10:54:25.620Z,18.77
2017-09-21T10:55:25.590Z,18.88
2017-09-21T10:56:25.569Z,18.86
2017-09-21T10:57:25.543Z,19.08
2017-09-21T10:58:25.510Z,19.15
2017-09-21T10:59:25.469Z,19.12
2017-09-21T11:00:25.445Z,18.98
2017-09-21T11:01:25.411Z,19.00
2017-09-21T11:02:25.373Z,18.49
2017-09-21T11:03:25.368Z,18.45
2017-09-21T11:04:25.319Z,18.78
2017-09-21T11:05:25.291Z,18.55
2017-09-21T11:06:25.254Z,18.55
2017-09-21T11:07:25.221Z,18.78
2017-09-21T11:08:25.188Z,18.89
2017-09-21T11:09:25.173Z,19.04
2017-09-21T11:10:25.133Z,18.77
2017-09-21T11:11:25.132Z,18.70
2017-09-21T11:12:25.064Z,18.52
2017-09-21T11:13:25.033Z,18.63
2017-09-21T11:14:25.004Z,18.59
2017-09-21T11:15:24.975Z,18.78
2017-09-21T11:16:24.943Z,18.92
2017-09-21T11:17:24.917Z,18.73
2017-09-21T11:18:24.904Z,18.71
2017-09-21T11:19:24.852Z,18.66
2017-09-21T11:20:24.820Z,18.70
2017-09-21T11:21:24.788Z,18.60
2017-09-21T11:22:24.761Z,18.55
2017-09-21T11:23:24.727Z,18.62
2017-09-21T11:24:24.706Z,18.99
2017-09-21T11:25:24.677Z,19.08
2017-09-21T11:26:24.658Z,19.07
2017-09-21T11:27:24.616Z,19.12
2017-09-21T11:28:24.583Z,19.16
2017-09-21T11:29:24.759Z,19.18
2017-09-21T11:30:24.516Z,19.00
2017-09-21T11:31:24.482Z,18.92
2017-09-21T11:32:24.451Z,18.99
2017-09-21T11:33:24.422Z,18.74
2017-09-21T11:34:24.397Z,18.59
2017-09-21T11:35:24.361Z,18.52
2017-09-21T11:36:24.331Z,18.56
2017-09-21T11:37:24.309Z,18.41
2017-09-21T11:38:24.270Z,18.22
2017-09-21T11:39:24.248Z,18.04
2017-09-21T11:40:24.215Z,18.01
2017-09-21T11:41:24.188Z,18.00
2017-09-21T11:42:24.146Z,18.00
2017-09-21T11:43:24.114Z,17.98
2017-09-21T11:44:24.092Z,17.85
2017-09-21T11:45:24.075Z,17.89
2017-09-21T11:46:24.023Z,17.90
2017-09-21T11:47:24.052Z,17.92
2017-09-21T11:48:23.967Z,17.90
2017-09-21T11:49:23.974Z,17.90
2017-09-21T11:50:23.897Z,17.83
2017-09-21T11:51:23.874Z,17.85
2017-09-21T11:52:23.841Z,17.80
2017-09-21T11:53:23.805Z,17.78
2017-09-21T11:54:23.789Z,17.79
2017-09-21T11:55:23.741Z,17.87
2017-09-21T11:56:23.784Z,17.82
2017-09-21T11:57:23.690Z,17.82
2017-09-21T11:58:23.660Z,17.68
2017-09-21T11:59:23.618Z,17.79
2017-09-21T12:00:23.582Z,17.64
2017-09-21T12:01:23.558Z,17.70
2017-09-21T12:02:23.546Z,17.70
2017-09-21T12:03:23.518Z,17.72
2017-09-21T12:04:23.468Z,17.64
2017-09-21T12:05:23.423Z,17.68
2017-09-21T12:06:23.396Z,17.59
2017-09-21T12:07:23.369Z,17.64
2017-09-21T12:08:23.336Z,17.57
2017-09-21T12:09:23.297Z,17.63
2017-09-21T12:10:23.280Z,17.70
2017-09-21T12:11:23.233Z,17.70
2017-09-21T12:12:23.202Z,17.68
2017-09-21T12:13:23.169Z,17.71
2017-09-21T12:14:23.138Z,17.64
2017-09-21T12:15:23.108Z,17.57
2017-09-21T12:16:23.087Z,17.46
2017-09-21T12:17:23.041Z,17.33
2017-09-21T12:18:23.011Z,17.49
2017-09-21T12:19:22.989Z,17.42
2017-09-21T12:20:22.960Z,17.42
2017-09-21T12:21:22.916Z,17.38
2017-09-21T12:22:22.880Z,17.46
2017-09-21T12:23:22.850Z,17.51
2017-09-21T12:24:22.819Z,17.64
2017-09-21T12:25:22.793Z,17.63
2017-09-21T12:26:22.754Z,17.48
2017-09-21T12:27:22.731Z,17.48
2017-09-21T12:28:22.688Z,17.45
2017-09-21T12:29:22.666Z,17.56
2017-09-21T12:30:22.624Z,17.48
2017-09-21T12:31:22.595Z,17.45
2017-09-21T12:32:22.609Z,17.44
2017-09-21T12:33:22.560Z,17.46
2017-09-21T12:34:22.516Z,17.38
2017-09-21T12:35:22.458Z,17.36
2017-09-21T12:36:22.428Z,17.31
2017-09-21T12:37:22.406Z,17.27
2017-09-21T12:38:22.364Z,17.31
2017-09-21T12:39:22.338Z,17.29
2017-09-21T12:40:22.315Z,17.27
2017-09-21T12:41:22.270Z,17.44
2017-09-21T12:42:22.260Z,17.46
2017-09-21T12:43:22.268Z,17.44
2017-09-21T12:44:22.184Z,17.31
2017-09-21T12:45:22.137Z,17.16
2017-09-21T12:46:22.111Z,17.26
2017-09-21T12:47:22.073Z,17.22
2017-09-21T12:48:22.035Z,17.19
2017-09-21T12:49:22.011Z,17.08
2017-09-21T12:50:21.979Z,17.15
2017-09-21T12:51:21.942Z,17.20
2017-09-21T12:52:21.917Z,17.16